createdAt,value
2023-06-30T00:00:56.653Z,2.47
2023-06-30T00:03:26.924Z,1.80
2023-06-30T00:05:57.011Z,2.00
2023-06-30T00:08:29.562Z,1.90
2023-06-30T00:10:59.615Z,1.92
2023-06-30T00:13:29.749Z,2.08
2023-06-30T00:16:01.892Z,1.77
2023-06-30T00:18:33.764Z,2.05
2023-06-30T00:21:04.425Z,2.05
2023-06-30T00:23:36.919Z,2.05
2023-06-30T00:26:06.766Z,1.92
2023-06-30T00:28:36.694Z,1.63
2023-06-30T00:31:06.633Z,2.10
2023-06-30T00:33:36.609Z,2.33
2023-06-30T00:36:06.789Z,2.08
2023-06-30T00:38:39.361Z,2.10
2023-06-30T00:41:09.290Z,2.30
2023-06-30T00:43:39.947Z,2.70
2023-06-30T00:46:10.828Z,2.30
2023-06-30T00:48:40.782Z,2.47
2023-06-30T00:51:10.773Z,2.40
2023-06-30T00:53:43.670Z,2.28
2023-06-30T00:56:13.697Z,2.60
2023-06-30T00:58:43.616Z,2.17
2023-06-30T01:01:20.092Z,2.60
2023-06-30T01:03:55.645Z,2.58
2023-06-30T01:06:31.992Z,2.72
2023-06-30T01:09:07.642Z,2.40
2023-06-30T01:11:39.335Z,2.83
2023-06-30T01:14:10.646Z,2.92
2023-06-30T01:16:43.419Z,3.20
2023-06-30T01:19:22.483Z,3.13
2023-06-30T01:21:52.554Z,2.92
2023-06-30T01:24:29.978Z,3.03
2023-06-30T01:27:00.236Z,3.60
2023-06-30T01:29:30.180Z,3.55
2023-06-30T01:32:00.629Z,5.22
2023-06-30T01:34:30.586Z,4.50
2023-06-30T01:37:00.559Z,5.55
2023-06-30T01:39:33.569Z,6.20
2023-06-30T01:42:03.618Z,6.18
2023-06-30T01:44:33.639Z,5.32
2023-06-30T01:47:04.540Z,6.05
2023-06-30T01:49:36.491Z,5.10
2023-06-30T01:52:06.883Z,4.95
2023-06-30T01:54:39.484Z,4.60
2023-06-30T01:57:09.444Z,4.93
2023-06-30T01:59:39.365Z,5.28
2023-06-30T02:02:11.222Z,6.43
2023-06-30T02:04:41.428Z,6.30
2023-06-30T02:07:11.442Z,5.90
2023-06-30T02:09:48.504Z,6.40
2023-06-30T02:12:19.252Z,5.40
2023-06-30T02:14:49.243Z,5.88
2023-06-30T02:17:19.254Z,5.50
2023-06-30T02:19:49.181Z,6.13
2023-06-30T02:22:19.043Z,5.65
2023-06-30T02:24:51.561Z,5.13
2023-06-30T02:27:21.506Z,5.20
2023-06-30T02:29:51.425Z,5.22
2023-06-30T02:32:21.859Z,5.18
2023-06-30T02:34:51.994Z,4.85
2023-06-30T02:37:22.004Z,5.28
2023-06-30T02:39:55.644Z,5.28
2023-06-30T02:42:25.799Z,5.60
2023-06-30T02:44:55.838Z,5.68
2023-06-30T02:47:26.052Z,6.18
2023-06-30T02:49:56.023Z,6.20
2023-06-30T02:52:27.094Z,6.40
2023-06-30T02:55:00.518Z,6.18
2023-06-30T02:57:30.604Z,5.35
2023-06-30T03:00:00.866Z,5.15
2023-06-30T03:02:30.983Z,5.53
2023-06-30T03:05:01.055Z,4.78
2023-06-30T03:07:31.361Z,5.50
2023-06-30T03:10:04.401Z,4.72
2023-06-30T03:12:34.389Z,5.60
2023-06-30T03:15:04.475Z,5.03
2023-06-30T03:17:34.532Z,5.22
2023-06-30T03:20:11.225Z,5.40
2023-06-30T03:22:41.248Z,4.75
2023-06-30T03:25:14.738Z,5.63
2023-06-30T03:27:44.882Z,4.43
2023-06-30T03:30:17.591Z,3.67
2023-06-30T03:32:47.718Z,3.70
2023-06-30T03:35:17.837Z,3.50
2023-06-30T03:37:48.786Z,3.10
2023-06-30T03:40:21.567Z,3.15
2023-06-30T03:42:51.620Z,3.43
2023-06-30T03:45:21.760Z,2.90
2023-06-30T03:47:51.916Z,2.90
2023-06-30T03:50:22.334Z,2.97
2023-06-30T03:52:52.359Z,3.23
2023-06-30T03:55:25.056Z,2.95
2023-06-30T03:57:54.961Z,3.35
2023-06-30T04:00:25.313Z,3.42
2023-06-30T04:02:55.355Z,3.17
2023-06-30T04:05:25.393Z,3.95
2023-06-30T04:07:55.973Z,2.88
2023-06-30T04:10:28.683Z,3.10
2023-06-30T04:12:58.835Z,2.60
2023-06-30T04:15:28.825Z,2.87
2023-06-30T04:17:58.810Z,3.20
2023-06-30T04:20:29.308Z,2.80
2023-06-30T04:23:06.486Z,2.88
2023-06-30T04:25:40.762Z,2.28
2023-06-30T04:28:10.690Z,2.27
2023-06-30T04:30:41.489Z,2.40
2023-06-30T04:33:11.367Z,2.10
2023-06-30T04:35:45.910Z,2.60
2023-06-30T04:38:16.196Z,2.07
2023-06-30T04:40:49.130Z,1.77
2023-06-30T04:43:19.185Z,2.07
2023-06-30T04:45:49.246Z,1.90
2023-06-30T04:48:19.397Z,2.43
2023-06-30T04:50:49.394Z,2.10
2023-06-30T04:53:19.302Z,2.10
2023-06-30T04:55:51.823Z,2.37
2023-06-30T04:58:23.133Z,2.10
2023-06-30T05:00:53.283Z,2.37
2023-06-30T05:03:23.461Z,2.10
2023-06-30T05:05:54.491Z,1.90
2023-06-30T05:08:25.478Z,1.80
2023-06-30T05:10:58.194Z,2.08
2023-06-30T05:13:32.070Z,2.28
2023-06-30T05:16:02.088Z,1.98
2023-06-30T05:18:32.364Z,2.00
2023-06-30T05:21:05.397Z,2.08
2023-06-30T05:23:35.506Z,2.70
2023-06-30T05:26:10.417Z,2.03
2023-06-30T05:28:43.158Z,1.90
2023-06-30T05:31:17.191Z,2.30
2023-06-30T05:33:49.475Z,2.20
2023-06-30T05:36:21.788Z,2.73
2023-06-30T05:38:51.746Z,2.10
2023-06-30T05:41:24.324Z,1.90
2023-06-30T05:43:54.588Z,1.70
2023-06-30T05:46:26.240Z,1.67
2023-06-30T05:48:56.324Z,2.17
2023-06-30T05:51:26.290Z,2.10
2023-06-30T05:53:56.273Z,3.00
2023-06-30T05:56:28.953Z,2.00
2023-06-30T05:58:59.890Z,2.30
2023-06-30T06:01:30.023Z,2.20
2023-06-30T06:04:01.100Z,2.80
2023-06-30T06:06:34.606Z,1.77
2023-06-30T06:09:04.830Z,2.07
2023-06-30T06:11:37.960Z,2.60
2023-06-30T06:14:07.864Z,2.07
2023-06-30T06:16:39.981Z,1.92
2023-06-30T06:19:10.008Z,2.20
2023-06-30T06:21:40.267Z,2.50
2023-06-30T06:24:11.161Z,2.20
2023-06-30T06:26:44.875Z,2.30
2023-06-30T06:29:20.365Z,2.60
2023-06-30T06:31:50.533Z,2.07
2023-06-30T06:34:21.856Z,2.17
2023-06-30T06:36:52.217Z,1.60
2023-06-30T06:39:23.186Z,1.83
2023-06-30T06:41:55.830Z,1.52
2023-06-30T06:44:26.288Z,1.83
2023-06-30T06:47:34.745Z,2.10
2023-06-30T06:50:05.668Z,1.88
2023-06-30T06:52:36.150Z,1.50
2023-06-30T06:55:06.508Z,1.50
2023-06-30T06:57:41.459Z,1.55
2023-06-30T07:00:12.625Z,1.60
2023-06-30T07:02:42.730Z,1.50
2023-06-30T07:05:14.166Z,1.27
2023-06-30T07:07:44.214Z,1.80
2023-06-30T07:10:14.836Z,1.50
2023-06-30T07:12:47.489Z,1.80
2023-06-30T07:15:17.645Z,1.77
2023-06-30T07:17:49.778Z,1.30
2023-06-30T07:20:20.103Z,1.50
2023-06-30T07:22:50.800Z,1.50
2023-06-30T07:25:20.795Z,1.60
2023-06-30T07:27:58.387Z,1.80
2023-06-30T07:30:31.375Z,1.63
2023-06-30T07:33:01.879Z,1.30
2023-06-30T07:35:32.240Z,1.42
2023-06-30T07:38:04.805Z,1.05
2023-06-30T07:40:50.286Z,1.33
2023-06-30T07:43:28.414Z,1.33
2023-06-30T07:45:58.479Z,1.45
2023-06-30T07:48:28.538Z,1.20
2023-06-30T07:51:08.508Z,1.10
2023-06-30T07:53:40.190Z,1.02
2023-06-30T07:56:10.309Z,1.10
2023-06-30T07:58:42.860Z,1.10
2023-06-30T08:01:12.893Z,0.80
2023-06-30T08:03:42.894Z,0.93
2023-06-30T08:06:13.147Z,1.10
2023-06-30T08:08:43.287Z,1.17
2023-06-30T08:11:15.628Z,1.02
2023-06-30T08:13:48.191Z,1.00
2023-06-30T08:16:20.251Z,1.00
2023-06-30T08:18:52.001Z,1.23
2023-06-30T08:21:22.365Z,0.85
2023-06-30T08:23:53.439Z,0.90
2023-06-30T08:26:23.365Z,0.90
2023-06-30T08:28:56.798Z,0.93
2023-06-30T08:31:26.885Z,1.00
2023-06-30T08:33:57.179Z,1.08
2023-06-30T08:36:27.159Z,0.88
2023-06-30T08:38:57.142Z,0.90
2023-06-30T08:41:29.540Z,1.02
2023-06-30T08:44:03.183Z,0.88
2023-06-30T08:46:37.312Z,1.02
2023-06-30T08:49:08.049Z,0.80
2023-06-30T08:51:41.227Z,1.27
2023-06-30T08:54:13.996Z,1.20
2023-06-30T08:56:44.304Z,1.58
2023-06-30T08:59:16.815Z,1.25
2023-06-30T09:01:48.325Z,1.40
2023-06-30T09:04:18.703Z,0.98
2023-06-30T09:06:52.273Z,1.02
2023-06-30T09:09:29.309Z,0.93
2023-06-30T09:12:03.089Z,1.10
2023-06-30T09:14:38.305Z,2.88
2023-06-30T09:17:09.255Z,1.60
2023-06-30T09:19:39.202Z,11.55
2023-06-30T09:22:55.222Z,2.15
2023-06-30T09:25:00.575Z,1.30
2023-06-30T09:27:40.862Z,1.25
2023-06-30T09:30:15.251Z,1.40
2023-06-30T09:32:46.641Z,1.27
2023-06-30T09:35:18.814Z,1.48
2023-06-30T09:37:48.949Z,1.25
2023-06-30T09:40:19.430Z,1.52
2023-06-30T09:42:55.768Z,1.88
2023-06-30T09:45:28.304Z,1.27
2023-06-30T09:47:58.549Z,1.63
2023-06-30T09:50:28.885Z,1.40
2023-06-30T09:52:59.093Z,1.40
2023-06-30T09:55:29.093Z,1.20
2023-06-30T09:57:59.867Z,1.27
2023-06-30T10:00:36.467Z,1.30
2023-06-30T10:03:12.845Z,1.15
2023-06-30T10:05:44.381Z,1.20
2023-06-30T10:08:16.999Z,1.40
2023-06-30T10:10:47.650Z,1.00
2023-06-30T10:13:19.552Z,1.20
2023-06-30T10:15:52.620Z,1.10
2023-06-30T10:18:23.869Z,1.23
2023-06-30T10:20:53.974Z,1.60
2023-06-30T10:23:26.823Z,1.10
2023-06-30T10:25:58.961Z,1.17
2023-06-30T10:28:29.021Z,1.27
2023-06-30T10:31:01.604Z,1.48
2023-06-30T10:33:31.545Z,1.60
2023-06-30T10:36:03.180Z,1.50
2023-06-30T10:38:33.478Z,1.63
2023-06-30T10:41:18.728Z,1.30
2023-06-30T10:44:10.834Z,1.33
2023-06-30T10:47:07.615Z,1.30
2023-06-30T10:49:38.964Z,1.40
2023-06-30T10:52:15.447Z,1.40
2023-06-30T10:54:49.031Z,1.52
2023-06-30T10:57:23.069Z,1.20
2023-06-30T11:00:08.706Z,1.40
2023-06-30T11:02:49.970Z,1.40
2023-06-30T11:05:25.297Z,1.85
2023-06-30T11:07:56.520Z,1.60
2023-06-30T11:10:40.078Z,2.00
2023-06-30T11:13:11.379Z,1.50
2023-06-30T11:15:44.884Z,1.50
2023-06-30T11:18:19.088Z,1.50
2023-06-30T11:21:06.417Z,1.42
2023-06-30T11:23:37.828Z,1.55
2023-06-30T11:26:18.687Z,1.65
2023-06-30T11:28:51.337Z,1.45
2023-06-30T11:31:21.571Z,1.40
2023-06-30T11:33:55.521Z,1.80
2023-06-30T11:36:25.634Z,1.50
2023-06-30T11:38:55.775Z,1.70
2023-06-30T11:41:26.207Z,2.00
2023-06-30T11:43:57.637Z,1.45
2023-06-30T11:46:29.077Z,1.55
2023-06-30T11:49:02.085Z,1.40
2023-06-30T11:51:32.883Z,1.63
2023-06-30T11:54:02.810Z,1.33
2023-06-30T11:56:32.690Z,1.50
2023-06-30T11:59:02.637Z,1.67
2023-06-30T12:01:32.638Z,1.40
2023-06-30T12:04:38.442Z,1.60
2023-06-30T12:07:08.675Z,1.20
2023-06-30T12:09:39.052Z,1.50
2023-06-30T12:12:09.850Z,1.50
2023-06-30T12:14:44.590Z,1.90
2023-06-30T12:17:14.508Z,1.75
2023-06-30T12:19:49.098Z,1.42
2023-06-30T12:22:28.663Z,1.40
2023-06-30T12:24:59.447Z,1.67
2023-06-30T12:27:32.761Z,1.98
2023-06-30T12:30:03.227Z,1.52
2023-06-30T12:32:34.662Z,1.90
2023-06-30T12:35:08.863Z,1.88
2023-06-30T12:37:42.089Z,1.90
2023-06-30T12:40:13.065Z,1.95
2023-06-30T12:42:42.987Z,1.95
2023-06-30T12:45:13.643Z,1.70
2023-06-30T12:47:43.691Z,2.17
2023-06-30T12:50:16.643Z,1.70
2023-06-30T12:52:46.918Z,1.83
2023-06-30T12:55:18.560Z,1.80
2023-06-30T12:57:48.869Z,1.45
2023-06-30T13:00:19.890Z,1.50
2023-06-30T13:02:49.786Z,1.80
2023-06-30T13:05:22.494Z,1.45
2023-06-30T13:07:52.349Z,2.00
2023-06-30T13:10:22.280Z,1.70
2023-06-30T13:12:53.921Z,2.40
2023-06-30T13:15:23.938Z,1.83
2023-06-30T13:17:53.865Z,1.90
2023-06-30T13:20:26.614Z,1.65
2023-06-30T13:23:10.557Z,1.60
2023-06-30T13:25:44.926Z,1.92
2023-06-30T13:28:15.181Z,1.73
2023-06-30T13:30:45.206Z,1.73
2023-06-30T13:33:15.267Z,1.85
2023-06-30T13:35:47.920Z,2.08
2023-06-30T13:38:19.412Z,1.98
2023-06-30T13:40:49.432Z,1.48
2023-06-30T13:43:19.362Z,1.65
2023-06-30T13:45:49.524Z,2.00
2023-06-30T13:48:19.443Z,1.63
2023-06-30T13:50:51.964Z,1.70
2023-06-30T13:53:23.278Z,1.60
2023-06-30T13:55:53.955Z,1.85
2023-06-30T13:58:23.892Z,1.70
2023-06-30T14:00:53.891Z,1.60
2023-06-30T14:03:23.866Z,1.85
2023-06-30T14:05:56.504Z,1.60
2023-06-30T14:08:26.642Z,2.28
2023-06-30T14:10:57.654Z,2.22
2023-06-30T14:13:29.880Z,1.92
2023-06-30T14:15:59.853Z,2.03
2023-06-30T14:18:29.723Z,2.10
2023-06-30T14:21:02.786Z,2.13
2023-06-30T14:23:32.894Z,1.73
2023-06-30T14:26:03.354Z,2.10
2023-06-30T14:28:33.294Z,1.55
2023-06-30T14:31:03.311Z,1.70
2023-06-30T14:33:33.320Z,2.00
2023-06-30T14:36:06.445Z,2.15
2023-06-30T14:38:37.382Z,2.80
2023-06-30T14:41:07.448Z,2.45
2023-06-30T14:43:37.348Z,2.50
2023-06-30T14:46:07.634Z,2.47
2023-06-30T14:48:37.600Z,2.67
2023-06-30T14:51:10.109Z,2.28
2023-06-30T14:53:40.046Z,2.40
2023-06-30T14:56:10.838Z,2.30
2023-06-30T14:58:40.798Z,2.08
2023-06-30T15:01:10.665Z,2.50
2023-06-30T15:03:41.329Z,2.25
2023-06-30T15:06:13.853Z,2.05
2023-06-30T15:08:44.074Z,2.75
2023-06-30T15:11:13.999Z,2.28
2023-06-30T15:13:43.917Z,2.33
2023-06-30T15:16:13.813Z,2.17
2023-06-30T15:18:43.779Z,2.17
2023-06-30T15:21:16.618Z,2.08
2023-06-30T15:23:46.610Z,2.28
2023-06-30T15:26:16.495Z,2.20
2023-06-30T15:28:46.381Z,1.80
2023-06-30T15:31:16.346Z,1.92
2023-06-30T15:33:46.678Z,2.22
2023-06-30T15:36:19.332Z,2.10
2023-06-30T15:38:49.222Z,2.15
2023-06-30T15:41:23.103Z,2.30
2023-06-30T15:43:54.381Z,1.75
2023-06-30T15:46:24.365Z,1.90
2023-06-30T15:48:54.250Z,2.10
2023-06-30T15:51:26.922Z,2.08
2023-06-30T15:53:56.864Z,2.20
2023-06-30T15:56:26.707Z,1.90
2023-06-30T15:58:56.683Z,3.17
2023-06-30T16:01:26.668Z,2.20
2023-06-30T16:03:56.672Z,2.50
2023-06-30T16:06:29.282Z,2.90
2023-06-30T16:08:59.207Z,2.20
2023-06-30T16:11:29.200Z,2.15
2023-06-30T16:14:01.864Z,2.67
2023-06-30T16:16:31.883Z,2.67
2023-06-30T16:19:03.360Z,2.08
2023-06-30T16:21:35.966Z,2.03
2023-06-30T16:24:05.867Z,2.30
2023-06-30T16:26:38.064Z,2.15
2023-06-30T16:29:08.003Z,2.53
2023-06-30T16:31:37.893Z,2.60
2023-06-30T16:34:08.139Z,2.45
2023-06-30T16:36:41.218Z,2.22
2023-06-30T16:39:11.171Z,2.05
2023-06-30T16:41:41.170Z,2.08
2023-06-30T16:44:11.141Z,2.40
2023-06-30T16:46:41.292Z,2.35
2023-06-30T16:49:12.554Z,2.85
2023-06-30T16:51:45.218Z,1.90
2023-06-30T16:54:15.300Z,2.30
2023-06-30T16:56:45.267Z,2.33
2023-06-30T16:59:15.231Z,2.10
2023-06-30T17:01:45.499Z,2.17
2023-06-30T17:04:25.918Z,2.20
2023-06-30T17:06:58.550Z,2.10
2023-06-30T17:09:28.461Z,2.20
2023-06-30T17:11:58.606Z,2.47
2023-06-30T17:14:28.572Z,1.98
2023-06-30T17:16:58.590Z,2.28
2023-06-30T17:19:28.909Z,2.53
2023-06-30T17:22:02.544Z,2.47
2023-06-30T17:24:34.861Z,2.65
2023-06-30T17:27:04.769Z,3.90
2023-06-30T17:29:34.728Z,2.70
2023-06-30T17:32:05.210Z,2.78
2023-06-30T17:34:35.131Z,2.90
2023-06-30T17:37:10.892Z,3.20
2023-06-30T17:39:40.845Z,2.60
2023-06-30T17:42:11.500Z,2.83
2023-06-30T17:44:42.783Z,2.85
2023-06-30T17:47:13.122Z,2.95
2023-06-30T17:49:44.072Z,2.67
2023-06-30T17:52:17.275Z,3.17
2023-06-30T17:54:47.327Z,2.63
2023-06-30T17:57:17.540Z,2.60
2023-06-30T17:59:47.411Z,2.40
2023-06-30T18:02:17.997Z,2.83
2023-06-30T18:04:48.511Z,2.65
2023-06-30T18:07:21.071Z,3.20
2023-06-30T18:09:51.291Z,3.00
2023-06-30T18:12:21.201Z,3.05
2023-06-30T18:14:51.118Z,2.72
2023-06-30T18:17:21.155Z,2.80
2023-06-30T18:19:51.151Z,3.00
2023-06-30T18:22:26.829Z,2.63
2023-06-30T18:24:56.768Z,2.47
2023-06-30T18:27:26.656Z,2.92
2023-06-30T18:29:56.499Z,3.15
2023-06-30T18:32:26.855Z,2.80
2023-06-30T18:34:57.020Z,3.20
2023-06-30T18:37:30.495Z,3.13
2023-06-30T18:40:00.455Z,2.70
2023-06-30T18:42:30.486Z,2.70
2023-06-30T18:45:00.551Z,2.55
2023-06-30T18:47:30.542Z,2.50
2023-06-30T18:50:00.655Z,2.47
2023-06-30T18:52:33.196Z,2.53
2023-06-30T18:55:03.395Z,2.80
2023-06-30T18:57:34.778Z,3.00
2023-06-30T19:00:04.761Z,2.58
2023-06-30T19:02:34.837Z,2.75
2023-06-30T19:05:05.024Z,2.88
2023-06-30T19:07:37.839Z,2.50
2023-06-30T19:10:08.882Z,2.80
2023-06-30T19:12:38.863Z,2.60
2023-06-30T19:15:10.548Z,2.30
2023-06-30T19:17:40.465Z,2.50
2023-06-30T19:20:11.264Z,2.30
2023-06-30T19:22:44.060Z,2.25
2023-06-30T19:25:14.227Z,2.42
2023-06-30T19:27:44.457Z,2.40
2023-06-30T19:30:15.679Z,2.50
2023-06-30T19:32:45.610Z,2.47
2023-06-30T19:35:15.645Z,2.10
2023-06-30T19:37:48.155Z,2.42
2023-06-30T19:40:19.017Z,2.60
2023-06-30T19:42:49.043Z,2.20
2023-06-30T19:45:18.969Z,2.35
2023-06-30T19:47:49.366Z,2.40
2023-06-30T19:50:24.186Z,2.50
2023-06-30T19:52:56.956Z,2.50
2023-06-30T19:55:26.911Z,2.70
2023-06-30T19:57:58.271Z,2.80
2023-06-30T20:00:28.167Z,2.70
2023-06-30T20:02:58.117Z,2.40
2023-06-30T20:05:28.444Z,2.50
2023-06-30T20:08:03.589Z,2.92
2023-06-30T20:10:33.507Z,2.60
2023-06-30T20:13:05.450Z,2.30
2023-06-30T20:15:36.124Z,2.63
2023-06-30T20:18:06.092Z,2.63
2023-06-30T20:20:36.048Z,2.40
2023-06-30T20:23:08.592Z,2.72
2023-06-30T20:25:38.535Z,2.67
2023-06-30T20:28:08.589Z,2.65
2023-06-30T20:30:39.369Z,2.83
2023-06-30T20:33:09.375Z,3.20
2023-06-30T20:35:39.309Z,2.92
2023-06-30T20:38:11.974Z,2.60
2023-06-30T20:40:41.943Z,2.75
2023-06-30T20:43:11.826Z,2.50
2023-06-30T20:45:41.801Z,2.63
2023-06-30T20:48:12.324Z,2.75
2023-06-30T20:50:42.221Z,2.75
2023-06-30T20:53:14.715Z,2.40
2023-06-30T20:55:44.792Z,2.65
2023-06-30T20:58:14.714Z,2.20
2023-06-30T21:00:44.821Z,2.35
2023-06-30T21:03:15.037Z,2.40
2023-06-30T21:05:45.191Z,2.30
2023-06-30T21:08:17.842Z,2.40
2023-06-30T21:10:47.897Z,2.35
2023-06-30T21:13:18.284Z,2.45
2023-06-30T21:15:48.248Z,2.70
2023-06-30T21:18:18.488Z,2.22
2023-06-30T21:20:48.682Z,2.30
2023-06-30T21:23:21.504Z,2.40
2023-06-30T21:25:51.404Z,2.30
2023-06-30T21:28:21.398Z,2.40
2023-06-30T21:30:51.407Z,2.70
2023-06-30T21:33:21.874Z,2.88
2023-06-30T21:35:51.917Z,2.65
2023-06-30T21:38:27.227Z,2.50
2023-06-30T21:40:57.286Z,2.28
2023-06-30T21:43:27.212Z,2.65
2023-06-30T21:46:01.715Z,2.78
2023-06-30T21:48:31.751Z,2.28
2023-06-30T21:51:01.699Z,2.40
2023-06-30T21:53:34.214Z,2.30
2023-06-30T21:56:04.321Z,2.55
2023-06-30T21:58:34.303Z,2.80
2023-06-30T22:01:04.522Z,2.38
2023-06-30T22:03:37.912Z,2.72
2023-06-30T22:06:08.080Z,2.47
2023-06-30T22:08:40.565Z,2.40
2023-06-30T22:11:11.321Z,2.63
2023-06-30T22:13:41.346Z,2.80
2023-06-30T22:16:11.561Z,2.90
2023-06-30T22:18:42.406Z,2.42
2023-06-30T22:21:12.302Z,2.85
2023-06-30T22:23:45.700Z,2.85
2023-06-30T22:26:16.797Z,2.78
2023-06-30T22:28:48.231Z,3.10
2023-06-30T22:31:18.241Z,2.72
2023-06-30T22:33:48.328Z,2.97
2023-06-30T22:36:18.148Z,2.60
2023-06-30T22:38:51.100Z,2.80
2023-06-30T22:41:21.086Z,2.80
2023-06-30T22:43:52.661Z,3.28
2023-06-30T22:46:22.579Z,2.80
2023-06-30T22:48:52.483Z,2.50
2023-06-30T22:51:23.982Z,3.00
2023-06-30T22:53:57.003Z,3.10
2023-06-30T22:56:27.026Z,2.90
2023-06-30T22:58:57.035Z,2.90
2023-06-30T23:01:26.880Z,2.80
2023-06-30T23:03:56.887Z,2.60
2023-06-30T23:06:26.900Z,3.00
2023-06-30T23:08:59.460Z,3.00
2023-06-30T23:11:29.346Z,2.75
2023-06-30T23:13:59.523Z,2.67
2023-06-30T23:16:29.427Z,2.60
2023-06-30T23:18:59.565Z,2.83
2023-06-30T23:21:29.457Z,2.92
2023-06-30T23:24:02.024Z,2.67
2023-06-30T23:26:31.986Z,2.75
2023-06-30T23:29:01.855Z,2.50
2023-06-30T23:31:34.295Z,2.95
2023-06-30T23:34:05.936Z,2.97
2023-06-30T23:36:36.528Z,2.78
2023-06-30T23:39:09.038Z,2.72
2023-06-30T23:41:39.309Z,2.80
2023-06-30T23:44:09.200Z,3.15
2023-06-30T23:46:39.380Z,2.60
2023-06-30T23:49:09.280Z,3.33
2023-06-30T23:51:39.160Z,2.67
2023-06-30T23:54:11.684Z,2.17
2023-06-30T23:56:41.571Z,2.88
2023-06-30T23:59:11.702Z,2.97
